sensor_id;sensor_type;location;lat;lon;timestamp;P1;durP1;ratioP1;P2;durP2;ratioP2
67585;SDS011;55785;47.946;20.540;2023-07-13T00:02:20;9.02;;;5.45;;
67585;SDS011;55785;47.946;20.540;2023-07-13T00:04:45;7.85;;;5.00;;
67585;SDS011;55785;47.946;20.540;2023-07-13T00:07:11;8.23;;;5.60;;
67585;SDS011;55785;47.946;20.540;2023-07-13T00:09:36;7.93;;;5.15;;
67585;SDS011;55785;47.946;20.540;2023-07-13T00:12:01;6.07;;;4.80;;
67585;SDS011;55785;47.946;20.540;2023-07-13T00:14:28;8.25;;;5.28;;
67585;SDS011;55785;47.946;20.540;2023-07-13T00:16:54;7.85;;;4.85;;
67585;SDS011;55785;47.946;20.540;2023-07-13T00:19:20;7.07;;;4.80;;
67585;SDS011;55785;47.946;20.540;2023-07-13T00:21:46;7.47;;;4.70;;
67585;SDS011;55785;47.946;20.540;2023-07-13T00:24:13;6.55;;;5.32;;
67585;SDS011;55785;47.946;20.540;2023-07-13T00:26:40;7.80;;;4.85;;
67585;SDS011;55785;47.946;20.540;2023-07-13T00:29:05;8.60;;;5.15;;
67585;SDS011;55785;47.946;20.540;2023-07-13T00:31:31;6.88;;;4.72;;
67585;SDS011;55785;47.946;20.540;2023-07-13T00:33:56;7.05;;;5.10;;
67585;SDS011;55785;47.946;20.540;2023-07-13T00:36:21;7.50;;;4.57;;
67585;SDS011;55785;47.946;20.540;2023-07-13T00:38:47;7.88;;;5.35;;
67585;SDS011;55785;47.946;20.540;2023-07-13T00:41:12;9.68;;;5.30;;
67585;SDS011;55785;47.946;20.540;2023-07-13T00:43:38;8.43;;;4.95;;
67585;SDS011;55785;47.946;20.540;2023-07-13T00:46:36;7.50;;;5.15;;
67585;SDS011;55785;47.946;20.540;2023-07-13T00:48:57;8.77;;;5.22;;
67585;SDS011;55785;47.946;20.540;2023-07-13T00:51:32;7.63;;;4.68;;
67585;SDS011;55785;47.946;20.540;2023-07-13T00:54:03;7.80;;;5.60;;
67585;SDS011;55785;47.946;20.540;2023-07-13T00:56:32;8.70;;;5.55;;
67585;SDS011;55785;47.946;20.540;2023-07-13T00:58:58;8.32;;;5.72;;
67585;SDS011;55785;47.946;20.540;2023-07-13T01:01:25;8.25;;;5.55;;
67585;SDS011;55785;47.946;20.540;2023-07-13T01:03:50;8.95;;;5.78;;
67585;SDS011;55785;47.946;20.540;2023-07-13T01:06:15;6.55;;;4.82;;
67585;SDS011;55785;47.946;20.540;2023-07-13T01:08:41;7.53;;;5.10;;
67585;SDS011;55785;47.946;20.540;2023-07-13T01:11:06;8.27;;;5.25;;
67585;SDS011;55785;47.946;20.540;2023-07-13T01:13:32;7.75;;;4.68;;
67585;SDS011;55785;47.946;20.540;2023-07-13T01:15:58;9.25;;;5.45;;
67585;SDS011;55785;47.946;20.540;2023-07-13T01:18:28;8.30;;;5.63;;
67585;SDS011;55785;47.946;20.540;2023-07-13T01:20:55;7.55;;;5.25;;
67585;SDS011;55785;47.946;20.540;2023-07-13T01:23:28;10.43;;;6.30;;
67585;SDS011;55785;47.946;20.540;2023-07-13T01:25:55;15.38;;;7.00;;
67585;SDS011;55785;47.946;20.540;2023-07-13T01:28:21;11.73;;;6.47;;
67585;SDS011;55785;47.946;20.540;2023-07-13T01:30:48;12.52;;;6.60;;
67585;SDS011;55785;47.946;20.540;2023-07-13T01:33:14;15.75;;;7.00;;
67585;SDS011;55785;47.946;20.540;2023-07-13T01:35:42;12.88;;;6.75;;
67585;SDS011;55785;47.946;20.540;2023-07-13T01:38:09;9.50;;;5.28;;
67585;SDS011;55785;47.946;20.540;2023-07-13T01:40:35;6.05;;;3.53;;
67585;SDS011;55785;47.946;20.540;2023-07-13T01:43:02;4.97;;;3.72;;
67585;SDS011;55785;47.946;20.540;2023-07-13T01:45:28;6.75;;;4.10;;
67585;SDS011;55785;47.946;20.540;2023-07-13T01:47:53;7.20;;;3.92;;
67585;SDS011;55785;47.946;20.540;2023-07-13T01:50:19;7.32;;;3.83;;
67585;SDS011;55785;47.946;20.540;2023-07-13T01:52:44;5.00;;;3.78;;
67585;SDS011;55785;47.946;20.540;2023-07-13T01:55:09;6.38;;;3.50;;
67585;SDS011;55785;47.946;20.540;2023-07-13T01:57:35;7.78;;;3.70;;
67585;SDS011;55785;47.946;20.540;2023-07-13T02:00:01;7.40;;;3.67;;
67585;SDS011;55785;47.946;20.540;2023-07-13T02:02:30;6.60;;;3.67;;
67585;SDS011;55785;47.946;20.540;2023-07-13T02:04:56;9.38;;;4.70;;
67585;SDS011;55785;47.946;20.540;2023-07-13T02:07:21;6.35;;;3.88;;
67585;SDS011;55785;47.946;20.540;2023-07-13T02:09:47;9.38;;;3.97;;
67585;SDS011;55785;47.946;20.540;2023-07-13T02:12:12;6.32;;;4.40;;
67585;SDS011;55785;47.946;20.540;2023-07-13T02:14:37;6.97;;;4.05;;
67585;SDS011;55785;47.946;20.540;2023-07-13T02:17:03;6.57;;;3.95;;
67585;SDS011;55785;47.946;20.540;2023-07-13T02:19:29;6.95;;;3.80;;
67585;SDS011;55785;47.946;20.540;2023-07-13T02:21:54;7.10;;;4.03;;
67585;SDS011;55785;47.946;20.540;2023-07-13T02:24:20;8.80;;;4.20;;
67585;SDS011;55785;47.946;20.540;2023-07-13T02:26:45;8.35;;;3.90;;
67585;SDS011;55785;47.946;20.540;2023-07-13T02:29:11;6.78;;;3.67;;
67585;SDS011;55785;47.946;20.540;2023-07-13T02:31:36;6.68;;;3.95;;
67585;SDS011;55785;47.946;20.540;2023-07-13T02:34:02;7.60;;;4.30;;
67585;SDS011;55785;47.946;20.540;2023-07-13T02:36:28;7.10;;;3.80;;
67585;SDS011;55785;47.946;20.540;2023-07-13T02:38:53;6.22;;;3.70;;
67585;SDS011;55785;47.946;20.540;2023-07-13T02:41:19;6.40;;;3.92;;
67585;SDS011;55785;47.946;20.540;2023-07-13T02:43:44;6.65;;;3.90;;
67585;SDS011;55785;47.946;20.540;2023-07-13T02:46:10;5.70;;;3.72;;
67585;SDS011;55785;47.946;20.540;2023-07-13T02:48:36;5.97;;;4.00;;
67585;SDS011;55785;47.946;20.540;2023-07-13T02:51:03;8.00;;;4.15;;
67585;SDS011;55785;47.946;20.540;2023-07-13T02:53:29;6.03;;;3.90;;
67585;SDS011;55785;47.946;20.540;2023-07-13T02:55:54;6.32;;;3.55;;
67585;SDS011;55785;47.946;20.540;2023-07-13T02:58:19;5.90;;;3.47;;
67585;SDS011;55785;47.946;20.540;2023-07-13T03:00:45;7.28;;;3.70;;
67585;SDS011;55785;47.946;20.540;2023-07-13T03:03:12;7.50;;;3.88;;
67585;SDS011;55785;47.946;20.540;2023-07-13T03:05:40;5.40;;;3.67;;
67585;SDS011;55785;47.946;20.540;2023-07-13T03:08:06;6.00;;;3.60;;
67585;SDS011;55785;47.946;20.540;2023-07-13T03:10:32;4.57;;;3.60;;
67585;SDS011;55785;47.946;20.540;2023-07-13T03:12:57;6.82;;;3.50;;
67585;SDS011;55785;47.946;20.540;2023-07-13T03:15:22;6.78;;;3.70;;
67585;SDS011;55785;47.946;20.540;2023-07-13T03:17:47;9.55;;;3.60;;
67585;SDS011;55785;47.946;20.540;2023-07-13T03:20:13;4.78;;;3.80;;
67585;SDS011;55785;47.946;20.540;2023-07-13T03:22:38;7.35;;;3.40;;
67585;SDS011;55785;47.946;20.540;2023-07-13T03:25:03;5.57;;;3.60;;
67585;SDS011;55785;47.946;20.540;2023-07-13T03:27:29;4.80;;;3.47;;
67585;SDS011;55785;47.946;20.540;2023-07-13T03:29:54;6.50;;;3.75;;
67585;SDS011;55785;47.946;20.540;2023-07-13T03:32:19;5.35;;;3.95;;
67585;SDS011;55785;47.946;20.540;2023-07-13T03:34:44;5.15;;;3.50;;
67585;SDS011;55785;47.946;20.540;2023-07-13T03:37:09;4.93;;;3.45;;
67585;SDS011;55785;47.946;20.540;2023-07-13T03:39:35;6.05;;;3.90;;
67585;SDS011;55785;47.946;20.540;2023-07-13T03:42:00;5.70;;;3.67;;
67585;SDS011;55785;47.946;20.540;2023-07-13T03:44:25;4.75;;;3.92;;
67585;SDS011;55785;47.946;20.540;2023-07-13T03:46:50;7.53;;;3.92;;
67585;SDS011;55785;47.946;20.540;2023-07-13T03:49:15;6.18;;;4.20;;
67585;SDS011;55785;47.946;20.540;2023-07-13T03:51:41;6.03;;;4.15;;
67585;SDS011;55785;47.946;20.540;2023-07-13T03:54:06;9.05;;;4.25;;
67585;SDS011;55785;47.946;20.540;2023-07-13T03:56:31;6.72;;;4.00;;
67585;SDS011;55785;47.946;20.540;2023-07-13T03:58:56;6.13;;;4.18;;
67585;SDS011;55785;47.946;20.540;2023-07-13T04:01:22;6.40;;;4.18;;
67585;SDS011;55785;47.946;20.540;2023-07-13T04:03:48;7.88;;;4.57;;
67585;SDS011;55785;47.946;20.540;2023-07-13T04:06:18;9.38;;;4.50;;
67585;SDS011;55785;47.946;20.540;2023-07-13T04:08:43;7.47;;;4.70;;
67585;SDS011;55785;47.946;20.540;2023-07-13T04:11:08;6.18;;;4.43;;
67585;SDS011;55785;47.946;20.540;2023-07-13T04:13:34;7.43;;;4.53;;
67585;SDS011;55785;47.946;20.540;2023-07-13T04:15:59;6.30;;;4.82;;
67585;SDS011;55785;47.946;20.540;2023-07-13T04:18:24;11.82;;;5.07;;
67585;SDS011;55785;47.946;20.540;2023-07-13T04:20:50;9.30;;;5.00;;
67585;SDS011;55785;47.946;20.540;2023-07-13T04:23:15;7.47;;;4.97;;
67585;SDS011;55785;47.946;20.540;2023-07-13T04:25:44;6.28;;;4.43;;
67585;SDS011;55785;47.946;20.540;2023-07-13T04:28:09;9.27;;;4.75;;
67585;SDS011;55785;47.946;20.540;2023-07-13T04:30:35;7.93;;;5.00;;
67585;SDS011;55785;47.946;20.540;2023-07-13T04:33:00;6.32;;;4.53;;
67585;SDS011;55785;47.946;20.540;2023-07-13T04:35:25;6.60;;;4.47;;
67585;SDS011;55785;47.946;20.540;2023-07-13T04:37:50;5.25;;;4.40;;
67585;SDS011;55785;47.946;20.540;2023-07-13T04:40:19;8.27;;;4.38;;
67585;SDS011;55785;47.946;20.540;2023-07-13T04:42:45;6.80;;;4.60;;
67585;SDS011;55785;47.946;20.540;2023-07-13T04:45:10;5.95;;;3.90;;
67585;SDS011;55785;47.946;20.540;2023-07-13T04:47:35;5.13;;;3.70;;
67585;SDS011;55785;47.946;20.540;2023-07-13T04:50:00;5.20;;;3.63;;
67585;SDS011;55785;47.946;20.540;2023-07-13T04:52:26;5.00;;;3.70;;
67585;SDS011;55785;47.946;20.540;2023-07-13T04:54:51;4.47;;;3.30;;
67585;SDS011;55785;47.946;20.540;2023-07-13T04:57:16;5.72;;;3.92;;
67585;SDS011;55785;47.946;20.540;2023-07-13T04:59:41;4.63;;;3.65;;
67585;SDS011;55785;47.946;20.540;2023-07-13T05:02:07;5.55;;;3.70;;
67585;SDS011;55785;47.946;20.540;2023-07-13T05:04:32;8.85;;;3.65;;
67585;SDS011;55785;47.946;20.540;2023-07-13T05:06:57;4.80;;;3.42;;
67585;SDS011;55785;47.946;20.540;2023-07-13T05:09:22;5.30;;;3.50;;
67585;SDS011;55785;47.946;20.540;2023-07-13T05:11:47;5.18;;;3.10;;
67585;SDS011;55785;47.946;20.540;2023-07-13T05:14:13;5.30;;;3.30;;
67585;SDS011;55785;47.946;20.540;2023-07-13T05:16:38;7.07;;;3.13;;
67585;SDS011;55785;47.946;20.540;2023-07-13T05:19:03;4.57;;;3.10;;
67585;SDS011;55785;47.946;20.540;2023-07-13T05:21:28;4.85;;;3.10;;
67585;SDS011;55785;47.946;20.540;2023-07-13T05:23:54;5.32;;;2.85;;
67585;SDS011;55785;47.946;20.540;2023-07-13T05:26:19;5.15;;;3.10;;
67585;SDS011;55785;47.946;20.540;2023-07-13T05:28:44;7.25;;;3.15;;
67585;SDS011;55785;47.946;20.540;2023-07-13T05:31:09;5.32;;;3.20;;
67585;SDS011;55785;47.946;20.540;2023-07-13T05:33:35;5.03;;;3.45;;
67585;SDS011;55785;47.946;20.540;2023-07-13T05:36:00;6.03;;;2.95;;
67585;SDS011;55785;47.946;20.540;2023-07-13T05:38:25;4.25;;;3.10;;
67585;SDS011;55785;47.946;20.540;2023-07-13T05:40:50;4.00;;;3.25;;
67585;SDS011;55785;47.946;20.540;2023-07-13T05:43:15;5.95;;;3.28;;
67585;SDS011;55785;47.946;20.540;2023-07-13T05:45:41;5.95;;;3.88;;
67585;SDS011;55785;47.946;20.540;2023-07-13T05:48:06;5.05;;;3.15;;
67585;SDS011;55785;47.946;20.540;2023-07-13T05:50:31;5.53;;;3.72;;
67585;SDS011;55785;47.946;20.540;2023-07-13T05:52:58;8.77;;;3.83;;
67585;SDS011;55785;47.946;20.540;2023-07-13T05:55:23;6.30;;;4.00;;
67585;SDS011;55785;47.946;20.540;2023-07-13T05:57:48;5.38;;;3.78;;
67585;SDS011;55785;47.946;20.540;2023-07-13T06:00:14;6.30;;;3.83;;
67585;SDS011;55785;47.946;20.540;2023-07-13T06:02:39;8.27;;;4.35;;
67585;SDS011;55785;47.946;20.540;2023-07-13T06:05:05;8.02;;;3.88;;
67585;SDS011;55785;47.946;20.540;2023-07-13T06:07:30;5.55;;;4.07;;
67585;SDS011;55785;47.946;20.540;2023-07-13T06:09:55;6.55;;;4.30;;
67585;SDS011;55785;47.946;20.540;2023-07-13T06:12:20;9.00;;;4.93;;
67585;SDS011;55785;47.946;20.540;2023-07-13T06:14:46;6.63;;;4.32;;
67585;SDS011;55785;47.946;20.540;2023-07-13T06:17:11;7.45;;;3.60;;
67585;SDS011;55785;47.946;20.540;2023-07-13T06:19:36;9.77;;;4.10;;
67585;SDS011;55785;47.946;20.540;2023-07-13T06:22:01;7.15;;;3.83;;
67585;SDS011;55785;47.946;20.540;2023-07-13T06:24:27;6.43;;;3.88;;
67585;SDS011;55785;47.946;20.540;2023-07-13T06:26:52;5.22;;;3.70;;
67585;SDS011;55785;47.946;20.540;2023-07-13T06:29:17;5.20;;;3.60;;
67585;SDS011;55785;47.946;20.540;2023-07-13T06:31:42;6.60;;;4.18;;
67585;SDS011;55785;47.946;20.540;2023-07-13T06:34:08;6.95;;;4.63;;
67585;SDS011;55785;47.946;20.540;2023-07-13T06:36:33;7.60;;;4.95;;
67585;SDS011;55785;47.946;20.540;2023-07-13T06:38:58;17.58;;;5.50;;
67585;SDS011;55785;47.946;20.540;2023-07-13T06:41:23;9.15;;;5.03;;
67585;SDS011;55785;47.946;20.540;2023-07-13T06:43:49;7.43;;;5.43;;
67585;SDS011;55785;47.946;20.540;2023-07-13T06:46:14;8.35;;;5.57;;
67585;SDS011;55785;47.946;20.540;2023-07-13T06:48:39;10.45;;;6.45;;
67585;SDS011;55785;47.946;20.540;2023-07-13T06:51:04;9.13;;;5.30;;
67585;SDS011;55785;47.946;20.540;2023-07-13T06:53:29;6.93;;;5.50;;
67585;SDS011;55785;47.946;20.540;2023-07-13T06:55:55;9.00;;;5.90;;
67585;SDS011;55785;47.946;20.540;2023-07-13T06:58:21;7.20;;;5.32;;
67585;SDS011;55785;47.946;20.540;2023-07-13T07:00:46;9.68;;;5.10;;
67585;SDS011;55785;47.946;20.540;2023-07-13T07:03:12;6.90;;;5.30;;
67585;SDS011;55785;47.946;20.540;2023-07-13T07:05:37;7.75;;;5.15;;
67585;SDS011;55785;47.946;20.540;2023-07-13T07:08:02;8.15;;;5.38;;
67585;SDS011;55785;47.946;20.540;2023-07-13T07:10:28;8.20;;;5.50;;
67585;SDS011;55785;47.946;20.540;2023-07-13T07:12:54;8.07;;;5.60;;
67585;SDS011;55785;47.946;20.540;2023-07-13T07:15:19;9.45;;;5.70;;
67585;SDS011;55785;47.946;20.540;2023-07-13T07:17:44;9.88;;;6.10;;
67585;SDS011;55785;47.946;20.540;2023-07-13T07:20:10;9.13;;;6.38;;
67585;SDS011;55785;47.946;20.540;2023-07-13T07:22:35;9.43;;;6.15;;
67585;SDS011;55785;47.946;20.540;2023-07-13T07:25:00;9.07;;;6.18;;
67585;SDS011;55785;47.946;20.540;2023-07-13T07:27:26;10.38;;;6.57;;
67585;SDS011;55785;47.946;20.540;2023-07-13T07:29:51;10.95;;;6.93;;
67585;SDS011;55785;47.946;20.540;2023-07-13T07:32:16;9.38;;;6.22;;
67585;SDS011;55785;47.946;20.540;2023-07-13T07:34:41;7.43;;;5.38;;
67585;SDS011;55785;47.946;20.540;2023-07-13T07:37:09;7.65;;;4.80;;
67585;SDS011;55785;47.946;20.540;2023-07-13T07:39:35;7.70;;;4.40;;
67585;SDS011;55785;47.946;20.540;2023-07-13T07:42:00;7.88;;;4.55;;
67585;SDS011;55785;47.946;20.540;2023-07-13T07:44:26;5.68;;;3.72;;
67585;SDS011;55785;47.946;20.540;2023-07-13T07:46:51;7.55;;;4.35;;
67585;SDS011;55785;47.946;20.540;2023-07-13T07:49:16;5.43;;;4.00;;
67585;SDS011;55785;47.946;20.540;2023-07-13T07:51:41;9.43;;;4.15;;
67585;SDS011;55785;47.946;20.540;2023-07-13T07:54:06;5.95;;;4.25;;
67585;SDS011;55785;47.946;20.540;2023-07-13T07:56:32;8.30;;;4.82;;
67585;SDS011;55785;47.946;20.540;2023-07-13T07:58:57;10.65;;;5.30;;
67585;SDS011;55785;47.946;20.540;2023-07-13T08:01:22;5.57;;;4.43;;
67585;SDS011;55785;47.946;20.540;2023-07-13T08:03:47;6.03;;;4.15;;
67585;SDS011;55785;47.946;20.540;2023-07-13T08:06:13;6.38;;;4.18;;
67585;SDS011;55785;47.946;20.540;2023-07-13T08:08:38;5.00;;;4.03;;
67585;SDS011;55785;47.946;20.540;2023-07-13T08:11:04;4.55;;;3.50;;
67585;SDS011;55785;47.946;20.540;2023-07-13T08:13:30;5.97;;;3.78;;
67585;SDS011;55785;47.946;20.540;2023-07-13T08:15:55;3.70;;;3.13;;
67585;SDS011;55785;47.946;20.540;2023-07-13T08:18:20;4.10;;;2.67;;
67585;SDS011;55785;47.946;20.540;2023-07-13T08:20:45;5.72;;;2.80;;
67585;SDS011;55785;47.946;20.540;2023-07-13T08:23:10;4.30;;;2.60;;
67585;SDS011;55785;47.946;20.540;2023-07-13T08:25:36;5.15;;;2.47;;
67585;SDS011;55785;47.946;20.540;2023-07-13T08:28:02;3.25;;;2.30;;
67585;SDS011;55785;47.946;20.540;2023-07-13T08:30:28;3.60;;;2.00;;
67585;SDS011;55785;47.946;20.540;2023-07-13T08:32:53;3.45;;;2.05;;
67585;SDS011;55785;47.946;20.540;2023-07-13T08:35:18;2.58;;;1.88;;
67585;SDS011;55785;47.946;20.540;2023-07-13T08:37:43;4.35;;;2.08;;
67585;SDS011;55785;47.946;20.540;2023-07-13T08:40:10;2.58;;;1.70;;
67585;SDS011;55785;47.946;20.540;2023-07-13T08:42:45;3.90;;;2.00;;
67585;SDS011;55785;47.946;20.540;2023-07-13T08:47:37;2.70;;;2.20;;
67585;SDS011;55785;47.946;20.540;2023-07-13T08:50:03;4.88;;;2.00;;
67585;SDS011;55785;47.946;20.540;2023-07-13T08:54:54;4.97;;;1.80;;
67585;SDS011;55785;47.946;20.540;2023-07-13T08:57:22;3.05;;;1.90;;
67585;SDS011;55785;47.946;20.540;2023-07-13T08:59:49;4.30;;;3.15;;
67585;SDS011;55785;47.946;20.540;2023-07-13T09:02:23;5.85;;;4.25;;
67585;SDS011;55785;47.946;20.540;2023-07-13T09:12:32;6.50;;;4.38;;
67585;SDS011;55785;47.946;20.540;2023-07-13T09:15:01;6.15;;;4.70;;
67585;SDS011;55785;47.946;20.540;2023-07-13T09:17:28;6.40;;;4.18;;
67585;SDS011;55785;47.946;20.540;2023-07-13T09:20:14;7.75;;;4.10;;
67585;SDS011;55785;47.946;20.540;2023-07-13T09:22:42;7.43;;;4.07;;
67585;SDS011;55785;47.946;20.540;2023-07-13T09:27:50;6.80;;;3.80;;
67585;SDS011;55785;47.946;20.540;2023-07-13T09:30:22;6.10;;;4.45;;
67585;SDS011;55785;47.946;20.540;2023-07-13T09:32:50;4.75;;;3.88;;
67585;SDS011;55785;47.946;20.540;2023-07-13T09:35:19;5.63;;;4.00;;
67585;SDS011;55785;47.946;20.540;2023-07-13T09:37:45;5.63;;;3.80;;
67585;SDS011;55785;47.946;20.540;2023-07-13T09:40:12;4.90;;;3.55;;
67585;SDS011;55785;47.946;20.540;2023-07-13T09:42:38;4.63;;;3.70;;
67585;SDS011;55785;47.946;20.540;2023-07-13T09:45:03;4.78;;;3.55;;
67585;SDS011;55785;47.946;20.540;2023-07-13T09:47:30;5.57;;;3.30;;
67585;SDS011;55785;47.946;20.540;2023-07-13T09:49:59;4.53;;;3.05;;
67585;SDS011;55785;47.946;20.540;2023-07-13T09:52:25;6.38;;;3.00;;
67585;SDS011;55785;47.946;20.540;2023-07-13T09:54:51;5.78;;;2.83;;
67585;SDS011;55785;47.946;20.540;2023-07-13T09:57:18;4.50;;;2.90;;
67585;SDS011;55785;47.946;20.540;2023-07-13T09:59:44;4.53;;;2.80;;
67585;SDS011;55785;47.946;20.540;2023-07-13T10:04:55;3.72;;;2.80;;
67585;SDS011;55785;47.946;20.540;2023-07-13T10:07:22;3.70;;;2.80;;
67585;SDS011;55785;47.946;20.540;2023-07-13T10:09:47;3.75;;;2.70;;
67585;SDS011;55785;47.946;20.540;2023-07-13T10:12:13;4.93;;;2.60;;
67585;SDS011;55785;47.946;20.540;2023-07-13T10:14:39;3.42;;;2.20;;
67585;SDS011;55785;47.946;20.540;2023-07-13T10:17:06;3.03;;;2.20;;
67585;SDS011;55785;47.946;20.540;2023-07-13T10:19:35;3.33;;;2.25;;
67585;SDS011;55785;47.946;20.540;2023-07-13T10:22:01;2.88;;;2.00;;
67585;SDS011;55785;47.946;20.540;2023-07-13T10:24:30;6.55;;;1.83;;
67585;SDS011;55785;47.946;20.540;2023-07-13T10:29:42;5.85;;;1.90;;
67585;SDS011;55785;47.946;20.540;2023-07-13T10:32:11;4.15;;;1.70;;
67585;SDS011;55785;47.946;20.540;2023-07-13T10:34:37;3.78;;;1.55;;
67585;SDS011;55785;47.946;20.540;2023-07-13T10:37:02;4.30;;;1.70;;
67585;SDS011;55785;47.946;20.540;2023-07-13T10:39:30;2.58;;;1.50;;
67585;SDS011;55785;47.946;20.540;2023-07-13T10:41:59;3.50;;;1.58;;
67585;SDS011;55785;47.946;20.540;2023-07-13T10:44:25;3.72;;;1.50;;
67585;SDS011;55785;47.946;20.540;2023-07-13T10:46:58;3.25;;;1.60;;
67585;SDS011;55785;47.946;20.540;2023-07-13T10:49:24;4.03;;;1.70;;
67585;SDS011;55785;47.946;20.540;2023-07-13T10:51:51;1.58;;;1.35;;
67585;SDS011;55785;47.946;20.540;2023-07-13T10:54:27;2.22;;;1.52;;
67585;SDS011;55785;47.946;20.540;2023-07-13T10:56:53;2.80;;;1.52;;
67585;SDS011;55785;47.946;20.540;2023-07-13T10:59:31;2.60;;;1.25;;
67585;SDS011;55785;47.946;20.540;2023-07-13T11:04:22;5.87;;;2.80;;
67585;SDS011;55785;47.946;20.540;2023-07-13T11:06:48;2.53;;;1.50;;
67585;SDS011;55785;47.946;20.540;2023-07-13T11:09:19;3.67;;;1.40;;
67585;SDS011;55785;47.946;20.540;2023-07-13T11:11:44;2.83;;;1.80;;
67585;SDS011;55785;47.946;20.540;2023-07-13T11:14:25;3.60;;;1.60;;
67585;SDS011;55785;47.946;20.540;2023-07-13T11:16:51;4.30;;;1.70;;
67585;SDS011;55785;47.946;20.540;2023-07-13T11:24:28;3.22;;;1.60;;
67585;SDS011;55785;47.946;20.540;2023-07-13T11:26:56;2.85;;;1.70;;
67585;SDS011;55785;47.946;20.540;2023-07-13T11:31:56;2.90;;;2.00;;
67585;SDS011;55785;47.946;20.540;2023-07-13T11:34:40;2.35;;;1.70;;
67585;SDS011;55785;47.946;20.540;2023-07-13T11:37:11;2.28;;;1.60;;
67585;SDS011;55785;47.946;20.540;2023-07-13T11:39:37;3.58;;;1.80;;
67585;SDS011;55785;47.946;20.540;2023-07-13T11:42:03;4.30;;;1.52;;
67585;SDS011;55785;47.946;20.540;2023-07-13T11:44:30;3.22;;;1.80;;
67585;SDS011;55785;47.946;20.540;2023-07-13T11:46:58;2.95;;;1.67;;
67585;SDS011;55785;47.946;20.540;2023-07-13T11:49:24;1.80;;;1.50;;
67585;SDS011;55785;47.946;20.540;2023-07-13T11:51:50;3.92;;;1.63;;
67585;SDS011;55785;47.946;20.540;2023-07-13T11:56:47;2.00;;;1.50;;
67585;SDS011;55785;47.946;20.540;2023-07-13T11:59:13;2.20;;;1.40;;
67585;SDS011;55785;47.946;20.540;2023-07-13T12:01:43;2.03;;;1.42;;
67585;SDS011;55785;47.946;20.540;2023-07-13T12:04:08;2.95;;;1.40;;
67585;SDS011;55785;47.946;20.540;2023-07-13T12:06:35;3.33;;;1.77;;
67585;SDS011;55785;47.946;20.540;2023-07-13T12:09:01;4.03;;;1.70;;
67585;SDS011;55785;47.946;20.540;2023-07-13T12:11:27;2.08;;;1.60;;
67585;SDS011;55785;47.946;20.540;2023-07-13T12:13:52;2.10;;;1.60;;
67585;SDS011;55785;47.946;20.540;2023-07-13T12:16:28;2.00;;;1.70;;
67585;SDS011;55785;47.946;20.540;2023-07-13T12:18:54;3.03;;;1.80;;
67585;SDS011;55785;47.946;20.540;2023-07-13T12:21:22;2.42;;;1.75;;
67585;SDS011;55785;47.946;20.540;2023-07-13T12:23:48;2.72;;;1.65;;
67585;SDS011;55785;47.946;20.540;2023-07-13T12:26:14;3.75;;;1.90;;
67585;SDS011;55785;47.946;20.540;2023-07-13T12:28:43;2.28;;;1.45;;
67585;SDS011;55785;47.946;20.540;2023-07-13T12:34:08;3.20;;;1.60;;
67585;SDS011;55785;47.946;20.540;2023-07-13T12:36:35;2.10;;;1.55;;
67585;SDS011;55785;47.946;20.540;2023-07-13T12:39:03;2.95;;;1.80;;
67585;SDS011;55785;47.946;20.540;2023-07-13T12:41:29;2.95;;;1.73;;
67585;SDS011;55785;47.946;20.540;2023-07-13T12:43:54;4.95;;;1.80;;
67585;SDS011;55785;47.946;20.540;2023-07-13T12:46:20;2.85;;;1.80;;
67585;SDS011;55785;47.946;20.540;2023-07-13T12:48:51;2.33;;;1.50;;
67585;SDS011;55785;47.946;20.540;2023-07-13T12:51:20;3.17;;;1.90;;
67585;SDS011;55785;47.946;20.540;2023-07-13T12:53:50;3.13;;;1.77;;
67585;SDS011;55785;47.946;20.540;2023-07-13T12:56:22;4.05;;;1.90;;
67585;SDS011;55785;47.946;20.540;2023-07-13T12:58:48;4.97;;;1.88;;
67585;SDS011;55785;47.946;20.540;2023-07-13T13:01:14;4.43;;;2.00;;
67585;SDS011;55785;47.946;20.540;2023-07-13T13:03:40;3.28;;;1.65;;
67585;SDS011;55785;47.946;20.540;2023-07-13T13:06:17;3.25;;;1.95;;
67585;SDS011;55785;47.946;20.540;2023-07-13T13:08:48;2.80;;;1.77;;
67585;SDS011;55785;47.946;20.540;2023-07-13T13:11:17;2.83;;;2.00;;
67585;SDS011;55785;47.946;20.540;2023-07-13T13:13:43;3.97;;;1.92;;
67585;SDS011;55785;47.946;20.540;2023-07-13T13:16:10;2.63;;;1.88;;
67585;SDS011;55785;47.946;20.540;2023-07-13T13:18:36;2.83;;;1.95;;
67585;SDS011;55785;47.946;20.540;2023-07-13T13:21:01;3.72;;;1.90;;
67585;SDS011;55785;47.946;20.540;2023-07-13T13:23:26;3.47;;;1.80;;
67585;SDS011;55785;47.946;20.540;2023-07-13T13:25:51;2.78;;;1.77;;
67585;SDS011;55785;47.946;20.540;2023-07-13T13:28:18;2.88;;;1.80;;
67585;SDS011;55785;47.946;20.540;2023-07-13T13:30:44;2.97;;;1.50;;
67585;SDS011;55785;47.946;20.540;2023-07-13T13:33:13;3.60;;;1.77;;
67585;SDS011;55785;47.946;20.540;2023-07-13T13:35:39;3.92;;;1.73;;
67585;SDS011;55785;47.946;20.540;2023-07-13T13:38:15;3.85;;;1.60;;
67585;SDS011;55785;47.946;20.540;2023-07-13T13:40:41;2.90;;;1.63;;
67585;SDS011;55785;47.946;20.540;2023-07-13T13:43:20;4.55;;;1.90;;
67585;SDS011;55785;47.946;20.540;2023-07-13T13:45:45;3.50;;;1.80;;
67585;SDS011;55785;47.946;20.540;2023-07-13T13:48:15;2.30;;;1.63;;
67585;SDS011;55785;47.946;20.540;2023-07-13T13:50:41;3.85;;;1.60;;
67585;SDS011;55785;47.946;20.540;2023-07-13T13:53:09;4.45;;;1.70;;
67585;SDS011;55785;47.946;20.540;2023-07-13T13:55:34;2.03;;;1.60;;
67585;SDS011;55785;47.946;20.540;2023-07-13T13:57:59;3.05;;;1.50;;
67585;SDS011;55785;47.946;20.540;2023-07-13T14:00:25;3.55;;;1.80;;
67585;SDS011;55785;47.946;20.540;2023-07-13T14:02:50;2.15;;;1.77;;
67585;SDS011;55785;47.946;20.540;2023-07-13T14:05:15;1.98;;;1.40;;
67585;SDS011;55785;47.946;20.540;2023-07-13T14:07:42;2.33;;;1.30;;
67585;SDS011;55785;47.946;20.540;2023-07-13T14:10:11;1.85;;;1.20;;
67585;SDS011;55785;47.946;20.540;2023-07-13T14:12:36;2.10;;;1.42;;
67585;SDS011;55785;47.946;20.540;2023-07-13T14:15:01;4.03;;;1.60;;
67585;SDS011;55785;47.946;20.540;2023-07-13T14:17:27;2.25;;;1.40;;
67585;SDS011;55785;47.946;20.540;2023-07-13T14:19:52;2.63;;;1.30;;
67585;SDS011;55785;47.946;20.540;2023-07-13T14:22:19;1.30;;;1.10;;
67585;SDS011;55785;47.946;20.540;2023-07-13T14:24:44;2.00;;;1.35;;
67585;SDS011;55785;47.946;20.540;2023-07-13T14:27:11;1.90;;;1.20;;
67585;SDS011;55785;47.946;20.540;2023-07-13T14:29:36;2.33;;;1.30;;
67585;SDS011;55785;47.946;20.540;2023-07-13T14:32:01;3.97;;;1.27;;
67585;SDS011;55785;47.946;20.540;2023-07-13T14:34:26;1.40;;;1.30;;
67585;SDS011;55785;47.946;20.540;2023-07-13T14:36:51;3.53;;;1.20;;
67585;SDS011;55785;47.946;20.540;2023-07-13T14:39:18;1.85;;;1.20;;
67585;SDS011;55785;47.946;20.540;2023-07-13T14:41:43;2.15;;;1.30;;
67585;SDS011;55785;47.946;20.540;2023-07-13T14:44:16;1.38;;;1.02;;
67585;SDS011;55785;47.946;20.540;2023-07-13T14:46:42;1.55;;;1.23;;
67585;SDS011;55785;47.946;20.540;2023-07-13T14:51:51;5.18;;;1.50;;
67585;SDS011;55785;47.946;20.540;2023-07-13T14:54:17;2.75;;;1.30;;
67585;SDS011;55785;47.946;20.540;2023-07-13T14:56:42;4.15;;;1.67;;
67585;SDS011;55785;47.946;20.540;2023-07-13T14:59:07;3.55;;;1.60;;
67585;SDS011;55785;47.946;20.540;2023-07-13T15:01:33;3.92;;;1.40;;
67585;SDS011;55785;47.946;20.540;2023-07-13T15:03:58;2.10;;;1.40;;
67585;SDS011;55785;47.946;20.540;2023-07-13T15:06:24;3.15;;;1.50;;
67585;SDS011;55785;47.946;20.540;2023-07-13T15:08:49;2.92;;;1.45;;